Carlos Alvarez

Ojeador - Toluca
16 Abr 2028
Domingo
Continuar

Personalidad

Adaptabilidad (6) Ambición (5) Controversia (9) Lealtad (14) Presión (10) Profesionalismo (16) Deportividad (17) Temperamento (7)

Perfil

Estilo de dirección Democrático
Licencia Continental Pro
Determinación 10
Gestión de personas 13
Motivación 9
Disciplina 5
Satisfacción laboral
100%
Fatiga
0%
Cargo Ojeador
Salario 90.0K p/s
Contrato 14.03.2029

Rendimiento

Comportamiento Bueno
Efectividad del entrenamiento
45%
Desarrollo de jugadores
40%
Prevención de lesiones
40%
Implementación táctica
45%

Eventos recientes

Evaluó a un jugador ahora
Asistió a una reunión de captación ahora
Evaluó a un jugador 7d atrás
Asistió a una reunión de captación 7d atrás
Evaluó a un jugador 7d atrás
Evaluó a un jugador 7d atrás
Evaluó a un jugador 7d atrás
Evaluó a un jugador 7d atrás

Actualmente siguiendo

58
Jugador Club Estado Habilidad Confianza Observado Última observación Último voto
Luca Williams-Barnett Walsall Activo 132 / 115 40% 2 15.04.2028 -
Jan Virgili Club Brugge Activo 136 / 136 40% 1 15.04.2028 -
Bennet Mokoena Ajax Cape Town Activo 117 / 129 40% 1 15.04.2028 -
Gilberto Mora Guadalajara Activo 133 / 142 40% 2 14.04.2028 -
Aarón Ochoa Málaga Activo 128 / 134 40% 1 14.04.2028 -
Igor Tyjon Barrow AFC Activo 113 / 118 40% 1 14.04.2028 -
Amin Nabizada Exeter City Activo 107 / 107 40% 1 10.04.2028 -
Mateus Mané Burnley Activo 149 / 147 40% 1 10.04.2028 -
Flávio Gonçalves Sporting CP Activo 131 / 141 40% 1 10.04.2028 -
Josh Acheampong Everton Activo 151 / 158 40% 2 08.04.2028 -
Oscar Schwartau Norwich City Activo 125 / 128 40% 2 08.04.2028 -
Ryunosuke Sato Eibar Activo 134 / 138 40% 1 08.04.2028 -
Luca Meirelles Kudrivka Activo 120 / 123 40% 1 07.04.2028 -
Noah Fernandez PSV Activo 121 / 133 40% 1 07.04.2028 -
Pablo García Racing Santander Activo 131 / 144 40% 1 05.04.2028 -
Luke Brooke-Smith Chesterfield Activo 100 / 115 40% 1 05.04.2028 -
Gabriel Mec Feirense Activo 129 / 134 40% 1 05.04.2028 -
Shea Lacey Crystal Palace Activo 125 / 136 40% 1 04.04.2028 -
Omar Khedr Gillingham Activo 110 / 130 40% 1 04.04.2028 -
Sindre Walle Egeli Udinese Activo 132 / 136 40% 1 03.04.2028 -
Giovanni Cantizano Fulham Activo 126 / 134 40% 1 03.04.2028 -
Bernardo Lima Porto Activo 102 / 127 40% 1 21.03.2028 -
Tyler Fletcher Rotherham United Activo 120 / 103 40% 1 21.03.2028 -
Jorge Salinas Racing Santander Activo 127 / 145 40% 1 19.03.2028 -
Matias Siltanen Malmo FF Activo 128 / 147 40% 1 19.03.2028 -
Ayden Heaven Portsmouth Activo 146 / 141 40% 1 19.03.2028 -
Finn Jeltsch VfB Stuttgart Activo 133 / 142 40% 3 18.03.2028 -
Riquelme Thompson-Jones Accrington Stanley Activo 103 / 107 40% 2 18.03.2028 -
Christos Mouzakitis Hull City Activo 130 / 132 40% 1 18.03.2028 -
Vinícius Lira São Paulo Activo 123 / 118 40% 2 17.03.2028 -
Izan Merino Málaga Activo 138 / 135 40% 1 16.03.2028 -
Misael Domínguez Morelia Activo 107 / 107 30% 1 / 1m 27.10.2027 -
Jacob Greaves Ipswich Town Activo 140 / 127 40% 2 29.12.2026 -
Kristoffer Lund Birmingham Activo 116 / 122 40% 1 29.12.2026 -
Valentín Gómez Betis Activo 136 / 154 40% 1 29.12.2026 -
Víctor Guzmán Monterrey Activo 138 / 136 40% 2 28.12.2026 -
Michael Baidoo Plymouth Argyle Activo 130 / 112 40% 2 28.12.2026 -
Shea Charles Southampton Activo 131 / 125 40% 1 26.12.2026 -
Welington Southampton Activo 119 / 137 40% 1 26.12.2026 -
Santiago González Tigre Activo 121 / 118 40% 2 23.12.2026 -
Toti Wolverhampton Activo 123 / 117 40% 1 23.12.2026 -
Erik Lira Cruz Azul Activo 137 / 137 40% 1 23.12.2026 -
César Araújo Tigres Activo 129 / 130 40% 1 20.12.2026 -
Richard Ledezma Guadalajara Activo 142 / 137 40% 1 20.12.2026 -
Jacques Ekomié Wrexham Activo 141 / 121 40% 1 19.12.2026 -
Dennis Cirkin Queens Park Rangers Activo 125 / 111 40% 1 19.12.2026 -
Nobel Mendy Hull City Activo 118 / 125 40% 2 12.12.2026 -
Sergi Cardona KAA Gent Activo 139 / 140 40% 3 09.12.2026 -
Ayrton Costa Boca Juniors Activo 137 / 129 40% 1 09.12.2026 -
Nazareno Colombo Racing Club Activo 131 / 119 40% 2 06.12.2026 -
Kevin Álvarez Club America Activo 132 / 125 40% 1 05.12.2026 -
Marco Di Cesare Racing Club Activo 133 / 122 40% 1 28.11.2026 -
Jayson Molumby West Bromwich Albion Activo 132 / 118 40% 1 28.11.2026 -
Yacine Adli Al-Shabab Activo 150 / 143 40% 1 28.11.2026 -
Franco Ibarra Rosario Central Activo 130 / 131 40% 1 24.11.2026 -
Fidel Ambríz Monterrey Activo 121 / 133 40% 1 12.11.2026 -
Gedson Fernandes Spartak Moscow Activo 133 / 142 40% 1 09.11.2026 -
Cheick Oumar Souaré Viktoria Plzen Activo 137 / 112 40% 1 09.11.2026 -